sensor_id;sensor_type;location;lat;lon;timestamp;P1;durP1;ratioP1;P2;durP2;ratioP2
11608;SDS011;5860;52.018;8.536;2024-02-04T00:02:06;22.90;;;14.33;;
11608;SDS011;5860;52.018;8.536;2024-02-04T00:04:33;23.07;;;12.90;;
11608;SDS011;5860;52.018;8.536;2024-02-04T00:07:04;25.57;;;14.30;;
11608;SDS011;5860;52.018;8.536;2024-02-04T00:09:31;20.93;;;13.17;;
11608;SDS011;5860;52.018;8.536;2024-02-04T00:12:02;24.07;;;13.33;;
11608;SDS011;5860;52.018;8.536;2024-02-04T00:14:30;19.33;;;12.57;;
11608;SDS011;5860;52.018;8.536;2024-02-04T00:16:57;16.63;;;11.97;;
11608;SDS011;5860;52.018;8.536;2024-02-04T00:19:25;19.20;;;13.13;;
11608;SDS011;5860;52.018;8.536;2024-02-04T00:21:53;22.67;;;13.03;;
11608;SDS011;5860;52.018;8.536;2024-02-04T00:24:20;21.53;;;12.80;;
11608;SDS011;5860;52.018;8.536;2024-02-04T00:26:48;18.20;;;11.37;;
11608;SDS011;5860;52.018;8.536;2024-02-04T00:29:15;17.27;;;10.60;;
11608;SDS011;5860;52.018;8.536;2024-02-04T00:31:41;17.87;;;10.53;;
11608;SDS011;5860;52.018;8.536;2024-02-04T00:34:09;14.07;;;10.57;;
11608;SDS011;5860;52.018;8.536;2024-02-04T00:36:36;16.97;;;10.97;;
11608;SDS011;5860;52.018;8.536;2024-02-04T00:39:03;16.17;;;9.97;;
11608;SDS011;5860;52.018;8.536;2024-02-04T00:41:30;16.13;;;10.37;;
11608;SDS011;5860;52.018;8.536;2024-02-04T00:43:57;17.93;;;10.77;;
11608;SDS011;5860;52.018;8.536;2024-02-04T00:46:24;14.20;;;10.13;;
11608;SDS011;5860;52.018;8.536;2024-02-04T00:48:51;14.03;;;10.47;;
11608;SDS011;5860;52.018;8.536;2024-02-04T00:51:18;15.67;;;9.77;;
11608;SDS011;5860;52.018;8.536;2024-02-04T00:53:47;15.67;;;9.37;;
11608;SDS011;5860;52.018;8.536;2024-02-04T00:56:13;12.47;;;8.00;;
11608;SDS011;5860;52.018;8.536;2024-02-04T00:58:40;15.60;;;8.60;;
11608;SDS011;5860;52.018;8.536;2024-02-04T01:01:07;15.57;;;9.20;;
11608;SDS011;5860;52.018;8.536;2024-02-04T01:03:34;12.53;;;8.20;;
11608;SDS011;5860;52.018;8.536;2024-02-04T01:06:01;14.23;;;8.37;;
11608;SDS011;5860;52.018;8.536;2024-02-04T01:08:28;12.67;;;8.37;;
11608;SDS011;5860;52.018;8.536;2024-02-04T01:10:55;16.30;;;8.80;;
11608;SDS011;5860;52.018;8.536;2024-02-04T01:13:22;18.00;;;8.43;;
11608;SDS011;5860;52.018;8.536;2024-02-04T01:15:50;15.90;;;8.83;;
11608;SDS011;5860;52.018;8.536;2024-02-04T01:18:16;15.67;;;9.20;;
11608;SDS011;5860;52.018;8.536;2024-02-04T01:20:43;16.50;;;9.30;;
11608;SDS011;5860;52.018;8.536;2024-02-04T01:23:10;11.97;;;8.90;;
11608;SDS011;5860;52.018;8.536;2024-02-04T01:25:37;15.50;;;8.57;;
11608;SDS011;5860;52.018;8.536;2024-02-04T01:28:09;12.43;;;8.40;;
11608;SDS011;5860;52.018;8.536;2024-02-04T01:30:36;18.93;;;12.17;;
11608;SDS011;5860;52.018;8.536;2024-02-04T01:33:03;14.97;;;9.67;;
11608;SDS011;5860;52.018;8.536;2024-02-04T01:35:31;16.00;;;9.87;;
11608;SDS011;5860;52.018;8.536;2024-02-04T01:37:57;13.47;;;8.80;;
11608;SDS011;5860;52.018;8.536;2024-02-04T01:40:24;13.07;;;8.10;;
11608;SDS011;5860;52.018;8.536;2024-02-04T01:42:51;12.03;;;8.63;;
11608;SDS011;5860;52.018;8.536;2024-02-04T01:45:18;13.83;;;8.40;;
11608;SDS011;5860;52.018;8.536;2024-02-04T01:47:45;12.23;;;8.63;;
11608;SDS011;5860;52.018;8.536;2024-02-04T01:50:13;12.27;;;7.97;;
11608;SDS011;5860;52.018;8.536;2024-02-04T01:52:43;13.47;;;7.43;;
11608;SDS011;5860;52.018;8.536;2024-02-04T01:55:11;11.70;;;8.40;;
11608;SDS011;5860;52.018;8.536;2024-02-04T01:57:39;14.30;;;9.73;;
11608;SDS011;5860;52.018;8.536;2024-02-04T02:00:07;16.63;;;11.60;;
11608;SDS011;5860;52.018;8.536;2024-02-04T02:02:39;19.73;;;11.57;;
11608;SDS011;5860;52.018;8.536;2024-02-04T02:05:07;23.43;;;15.03;;
11608;SDS011;5860;52.018;8.536;2024-02-04T02:07:36;26.40;;;16.07;;
11608;SDS011;5860;52.018;8.536;2024-02-04T02:10:05;27.47;;;16.40;;
11608;SDS011;5860;52.018;8.536;2024-02-04T02:12:36;29.33;;;19.00;;
11608;SDS011;5860;52.018;8.536;2024-02-04T02:15:20;32.43;;;19.30;;
11608;SDS011;5860;52.018;8.536;2024-02-04T02:18:08;28.43;;;17.57;;
11608;SDS011;5860;52.018;8.536;2024-02-04T02:20:47;25.20;;;16.80;;
11608;SDS011;5860;52.018;8.536;2024-02-04T02:23:52;26.47;;;16.77;;
11608;SDS011;5860;52.018;8.536;2024-02-04T02:26:32;21.63;;;14.30;;
11608;SDS011;5860;52.018;8.536;2024-02-04T02:29:00;23.07;;;15.37;;
11608;SDS011;5860;52.018;8.536;2024-02-04T02:31:27;22.70;;;14.50;;
11608;SDS011;5860;52.018;8.536;2024-02-04T02:34:09;21.97;;;14.73;;
11608;SDS011;5860;52.018;8.536;2024-02-04T02:36:57;21.83;;;14.77;;
11608;SDS011;5860;52.018;8.536;2024-02-04T02:39:42;21.10;;;13.93;;
11608;SDS011;5860;52.018;8.536;2024-02-04T02:42:16;21.30;;;13.30;;
11608;SDS011;5860;52.018;8.536;2024-02-04T02:44:43;20.00;;;12.97;;
11608;SDS011;5860;52.018;8.536;2024-02-04T02:47:12;20.57;;;12.47;;
11608;SDS011;5860;52.018;8.536;2024-02-04T02:49:41;18.53;;;12.10;;
11608;SDS011;5860;52.018;8.536;2024-02-04T02:52:08;17.97;;;11.60;;
11608;SDS011;5860;52.018;8.536;2024-02-04T02:54:35;20.47;;;12.07;;
11608;SDS011;5860;52.018;8.536;2024-02-04T02:57:02;20.73;;;12.70;;
11608;SDS011;5860;52.018;8.536;2024-02-04T02:59:29;17.30;;;11.70;;
11608;SDS011;5860;52.018;8.536;2024-02-04T03:01:56;15.30;;;10.70;;
11608;SDS011;5860;52.018;8.536;2024-02-04T03:04:23;11.07;;;7.77;;
11608;SDS011;5860;52.018;8.536;2024-02-04T03:06:50;11.77;;;8.07;;
11608;SDS011;5860;52.018;8.536;2024-02-04T03:09:17;14.10;;;7.93;;
11608;SDS011;5860;52.018;8.536;2024-02-04T03:11:44;9.40;;;6.63;;
11608;SDS011;5860;52.018;8.536;2024-02-04T03:14:13;9.10;;;6.23;;
11608;SDS011;5860;52.018;8.536;2024-02-04T03:16:45;10.80;;;7.20;;
11608;SDS011;5860;52.018;8.536;2024-02-04T03:19:12;7.40;;;5.43;;
11608;SDS011;5860;52.018;8.536;2024-02-04T03:21:39;7.47;;;5.27;;
11608;SDS011;5860;52.018;8.536;2024-02-04T03:24:06;7.33;;;5.43;;
11608;SDS011;5860;52.018;8.536;2024-02-04T03:26:33;7.83;;;5.63;;
11608;SDS011;5860;52.018;8.536;2024-02-04T03:29:00;8.23;;;5.93;;
11608;SDS011;5860;52.018;8.536;2024-02-04T03:31:27;12.40;;;6.10;;
11608;SDS011;5860;52.018;8.536;2024-02-04T03:33:53;8.23;;;6.63;;
11608;SDS011;5860;52.018;8.536;2024-02-04T03:36:24;9.90;;;7.23;;
11608;SDS011;5860;52.018;8.536;2024-02-04T03:38:51;8.93;;;7.10;;
11608;SDS011;5860;52.018;8.536;2024-02-04T03:41:18;10.83;;;7.63;;
11608;SDS011;5860;52.018;8.536;2024-02-04T03:43:45;10.17;;;7.93;;
11608;SDS011;5860;52.018;8.536;2024-02-04T03:46:15;10.53;;;8.40;;
11608;SDS011;5860;52.018;8.536;2024-02-04T03:48:43;9.77;;;8.03;;
11608;SDS011;5860;52.018;8.536;2024-02-04T03:51:17;10.60;;;8.03;;
11608;SDS011;5860;52.018;8.536;2024-02-04T03:53:45;13.13;;;8.77;;
11608;SDS011;5860;52.018;8.536;2024-02-04T03:56:13;11.53;;;8.37;;
11608;SDS011;5860;52.018;8.536;2024-02-04T03:58:40;10.37;;;7.93;;
11608;SDS011;5860;52.018;8.536;2024-02-04T04:01:10;10.90;;;8.23;;
11608;SDS011;5860;52.018;8.536;2024-02-04T04:03:39;12.30;;;8.80;;
11608;SDS011;5860;52.018;8.536;2024-02-04T04:06:08;12.40;;;8.53;;
11608;SDS011;5860;52.018;8.536;2024-02-04T04:08:36;12.57;;;9.10;;
11608;SDS011;5860;52.018;8.536;2024-02-04T04:11:03;13.00;;;9.30;;
11608;SDS011;5860;52.018;8.536;2024-02-04T04:13:31;13.67;;;9.10;;
11608;SDS011;5860;52.018;8.536;2024-02-04T04:16:02;11.43;;;8.53;;
11608;SDS011;5860;52.018;8.536;2024-02-04T04:18:30;13.57;;;8.30;;
11608;SDS011;5860;52.018;8.536;2024-02-04T04:20:57;12.40;;;8.80;;
11608;SDS011;5860;52.018;8.536;2024-02-04T04:23:26;12.93;;;8.90;;
11608;SDS011;5860;52.018;8.536;2024-02-04T04:25:53;12.63;;;7.93;;
11608;SDS011;5860;52.018;8.536;2024-02-04T04:28:20;9.70;;;7.13;;
11608;SDS011;5860;52.018;8.536;2024-02-04T04:30:47;9.77;;;7.30;;
11608;SDS011;5860;52.018;8.536;2024-02-04T04:33:14;8.03;;;6.00;;
11608;SDS011;5860;52.018;8.536;2024-02-04T04:35:41;7.27;;;5.13;;
11608;SDS011;5860;52.018;8.536;2024-02-04T04:38:08;6.20;;;5.07;;
11608;SDS011;5860;52.018;8.536;2024-02-04T04:40:35;6.57;;;5.00;;
11608;SDS011;5860;52.018;8.536;2024-02-04T04:43:02;7.87;;;5.77;;
11608;SDS011;5860;52.018;8.536;2024-02-04T04:45:29;6.90;;;5.00;;
11608;SDS011;5860;52.018;8.536;2024-02-04T04:47:57;6.73;;;4.67;;
11608;SDS011;5860;52.018;8.536;2024-02-04T04:50:24;5.87;;;4.13;;
11608;SDS011;5860;52.018;8.536;2024-02-04T04:52:51;4.73;;;3.77;;
11608;SDS011;5860;52.018;8.536;2024-02-04T04:55:21;5.33;;;3.67;;
11608;SDS011;5860;52.018;8.536;2024-02-04T04:57:48;5.73;;;3.67;;
11608;SDS011;5860;52.018;8.536;2024-02-04T05:00:15;5.70;;;3.37;;
11608;SDS011;5860;52.018;8.536;2024-02-04T05:02:43;6.37;;;3.00;;
11608;SDS011;5860;52.018;8.536;2024-02-04T05:05:11;5.30;;;3.03;;
11608;SDS011;5860;52.018;8.536;2024-02-04T05:07:38;4.37;;;2.77;;
11608;SDS011;5860;52.018;8.536;2024-02-04T05:10:06;4.23;;;2.60;;
11608;SDS011;5860;52.018;8.536;2024-02-04T05:12:34;5.47;;;2.97;;
11608;SDS011;5860;52.018;8.536;2024-02-04T05:15:02;5.30;;;3.00;;
11608;SDS011;5860;52.018;8.536;2024-02-04T05:17:29;3.40;;;2.60;;
11608;SDS011;5860;52.018;8.536;2024-02-04T05:20:00;3.77;;;2.70;;
11608;SDS011;5860;52.018;8.536;2024-02-04T05:22:27;4.70;;;2.83;;
11608;SDS011;5860;52.018;8.536;2024-02-04T05:24:54;3.70;;;2.57;;
11608;SDS011;5860;52.018;8.536;2024-02-04T05:27:21;2.90;;;2.20;;
11608;SDS011;5860;52.018;8.536;2024-02-04T05:29:47;4.30;;;2.50;;
11608;SDS011;5860;52.018;8.536;2024-02-04T05:32:14;5.57;;;3.17;;
11608;SDS011;5860;52.018;8.536;2024-02-04T05:34:41;4.90;;;3.10;;
11608;SDS011;5860;52.018;8.536;2024-02-04T05:37:09;3.90;;;3.50;;
11608;SDS011;5860;52.018;8.536;2024-02-04T05:39:36;4.33;;;3.37;;
11608;SDS011;5860;52.018;8.536;2024-02-04T05:42:03;6.20;;;3.20;;
11608;SDS011;5860;52.018;8.536;2024-02-04T05:44:30;4.67;;;3.33;;
11608;SDS011;5860;52.018;8.536;2024-02-04T05:46:57;4.40;;;3.37;;
11608;SDS011;5860;52.018;8.536;2024-02-04T05:49:24;6.83;;;4.00;;
11608;SDS011;5860;52.018;8.536;2024-02-04T05:51:51;6.27;;;3.93;;
11608;SDS011;5860;52.018;8.536;2024-02-04T05:54:18;7.73;;;3.57;;
11608;SDS011;5860;52.018;8.536;2024-02-04T05:56:47;4.03;;;3.40;;
11608;SDS011;5860;52.018;8.536;2024-02-04T05:59:13;5.30;;;3.57;;
11608;SDS011;5860;52.018;8.536;2024-02-04T06:01:42;4.47;;;3.00;;
11608;SDS011;5860;52.018;8.536;2024-02-04T06:04:12;6.97;;;3.33;;
11608;SDS011;5860;52.018;8.536;2024-02-04T06:06:39;5.40;;;3.20;;
11608;SDS011;5860;52.018;8.536;2024-02-04T06:09:06;6.03;;;2.93;;
11608;SDS011;5860;52.018;8.536;2024-02-04T06:11:35;6.03;;;3.07;;
11608;SDS011;5860;52.018;8.536;2024-02-04T06:14:01;6.50;;;3.03;;
11608;SDS011;5860;52.018;8.536;2024-02-04T06:16:28;6.63;;;3.27;;
11608;SDS011;5860;52.018;8.536;2024-02-04T06:18:56;7.03;;;2.90;;
11608;SDS011;5860;52.018;8.536;2024-02-04T06:21:24;4.17;;;3.07;;
11608;SDS011;5860;52.018;8.536;2024-02-04T06:23:52;5.70;;;3.30;;
11608;SDS011;5860;52.018;8.536;2024-02-04T06:26:19;5.83;;;3.30;;
11608;SDS011;5860;52.018;8.536;2024-02-04T06:28:46;5.40;;;3.80;;
11608;SDS011;5860;52.018;8.536;2024-02-04T06:31:15;8.23;;;3.83;;
11608;SDS011;5860;52.018;8.536;2024-02-04T06:33:42;6.47;;;3.77;;
11608;SDS011;5860;52.018;8.536;2024-02-04T06:36:10;6.50;;;3.47;;
11608;SDS011;5860;52.018;8.536;2024-02-04T06:38:37;5.27;;;3.73;;
11608;SDS011;5860;52.018;8.536;2024-02-04T06:41:04;7.07;;;3.93;;
11608;SDS011;5860;52.018;8.536;2024-02-04T06:43:31;6.87;;;4.30;;
11608;SDS011;5860;52.018;8.536;2024-02-04T06:46:02;5.93;;;4.30;;
11608;SDS011;5860;52.018;8.536;2024-02-04T06:48:29;7.07;;;4.50;;
11608;SDS011;5860;52.018;8.536;2024-02-04T06:50:56;7.67;;;4.57;;
11608;SDS011;5860;52.018;8.536;2024-02-04T06:53:23;8.40;;;3.83;;
11608;SDS011;5860;52.018;8.536;2024-02-04T06:55:50;7.07;;;4.23;;
11608;SDS011;5860;52.018;8.536;2024-02-04T06:58:17;6.57;;;5.00;;
11608;SDS011;5860;52.018;8.536;2024-02-04T07:00:44;6.53;;;4.37;;
11608;SDS011;5860;52.018;8.536;2024-02-04T07:03:12;9.70;;;4.27;;
11608;SDS011;5860;52.018;8.536;2024-02-04T07:05:39;7.37;;;4.50;;
11608;SDS011;5860;52.018;8.536;2024-02-04T07:08:07;8.27;;;4.77;;
11608;SDS011;5860;52.018;8.536;2024-02-04T07:10:34;9.70;;;5.20;;
11608;SDS011;5860;52.018;8.536;2024-02-04T07:13:01;6.77;;;4.97;;
11608;SDS011;5860;52.018;8.536;2024-02-04T07:15:29;9.23;;;5.10;;
11608;SDS011;5860;52.018;8.536;2024-02-04T07:17:55;7.97;;;5.20;;
11608;SDS011;5860;52.018;8.536;2024-02-04T07:20:23;9.07;;;5.10;;
11608;SDS011;5860;52.018;8.536;2024-02-04T07:22:50;8.40;;;5.27;;
11608;SDS011;5860;52.018;8.536;2024-02-04T07:25:17;8.40;;;5.77;;
11608;SDS011;5860;52.018;8.536;2024-02-04T07:27:44;8.57;;;5.67;;
11608;SDS011;5860;52.018;8.536;2024-02-04T07:30:10;9.40;;;6.10;;
11608;SDS011;5860;52.018;8.536;2024-02-04T07:32:38;9.47;;;5.57;;
11608;SDS011;5860;52.018;8.536;2024-02-04T07:35:05;10.27;;;5.90;;
11608;SDS011;5860;52.018;8.536;2024-02-04T07:37:33;9.13;;;5.77;;
11608;SDS011;5860;52.018;8.536;2024-02-04T07:40:00;11.17;;;6.63;;
11608;SDS011;5860;52.018;8.536;2024-02-04T07:42:27;10.97;;;6.27;;
11608;SDS011;5860;52.018;8.536;2024-02-04T07:44:55;9.27;;;5.60;;
11608;SDS011;5860;52.018;8.536;2024-02-04T07:47:22;12.20;;;5.67;;
11608;SDS011;5860;52.018;8.536;2024-02-04T07:49:49;12.67;;;5.70;;
11608;SDS011;5860;52.018;8.536;2024-02-04T07:52:17;11.23;;;5.60;;
11608;SDS011;5860;52.018;8.536;2024-02-04T07:54:43;14.30;;;6.47;;
11608;SDS011;5860;52.018;8.536;2024-02-04T07:57:12;9.40;;;5.77;;
11608;SDS011;5860;52.018;8.536;2024-02-04T07:59:39;10.13;;;5.97;;
11608;SDS011;5860;52.018;8.536;2024-02-04T08:02:06;12.87;;;6.17;;
11608;SDS011;5860;52.018;8.536;2024-02-04T08:04:33;14.17;;;6.27;;
11608;SDS011;5860;52.018;8.536;2024-02-04T08:07:00;12.50;;;6.80;;
11608;SDS011;5860;52.018;8.536;2024-02-04T08:09:28;10.47;;;6.10;;
11608;SDS011;5860;52.018;8.536;2024-02-04T08:11:55;11.63;;;6.10;;
11608;SDS011;5860;52.018;8.536;2024-02-04T08:14:25;10.73;;;6.20;;
11608;SDS011;5860;52.018;8.536;2024-02-04T08:16:52;11.63;;;5.07;;
11608;SDS011;5860;52.018;8.536;2024-02-04T08:19:18;11.37;;;5.30;;
11608;SDS011;5860;52.018;8.536;2024-02-04T08:21:48;11.37;;;5.00;;
11608;SDS011;5860;52.018;8.536;2024-02-04T08:24:19;10.27;;;4.67;;
11608;SDS011;5860;52.018;8.536;2024-02-04T08:26:46;8.53;;;4.87;;
11608;SDS011;5860;52.018;8.536;2024-02-04T08:29:13;10.07;;;4.87;;
11608;SDS011;5860;52.018;8.536;2024-02-04T08:31:40;7.23;;;3.27;;
11608;SDS011;5860;52.018;8.536;2024-02-04T08:34:07;7.30;;;3.47;;
11608;SDS011;5860;52.018;8.536;2024-02-04T08:36:35;6.47;;;2.97;;
11608;SDS011;5860;52.018;8.536;2024-02-04T08:39:02;9.97;;;2.63;;
11608;SDS011;5860;52.018;8.536;2024-02-04T08:41:29;7.03;;;2.63;;
11608;SDS011;5860;52.018;8.536;2024-02-04T08:43:57;6.67;;;2.37;;
11608;SDS011;5860;52.018;8.536;2024-02-04T08:46:27;9.27;;;2.57;;
11608;SDS011;5860;52.018;8.536;2024-02-04T08:48:54;8.27;;;2.90;;
11608;SDS011;5860;52.018;8.536;2024-02-04T08:51:21;4.90;;;2.23;;
11608;SDS011;5860;52.018;8.536;2024-02-04T08:53:48;6.17;;;2.47;;
11608;SDS011;5860;52.018;8.536;2024-02-04T08:56:15;10.23;;;3.23;;
11608;SDS011;5860;52.018;8.536;2024-02-04T08:58:42;9.33;;;2.17;;
11608;SDS011;5860;52.018;8.536;2024-02-04T09:01:10;9.63;;;2.33;;
11608;SDS011;5860;52.018;8.536;2024-02-04T09:03:37;6.30;;;2.10;;
11608;SDS011;5860;52.018;8.536;2024-02-04T09:06:04;8.13;;;1.90;;
11608;SDS011;5860;52.018;8.536;2024-02-04T09:08:31;7.83;;;2.10;;
11608;SDS011;5860;52.018;8.536;2024-02-04T09:11:01;5.47;;;1.97;;
11608;SDS011;5860;52.018;8.536;2024-02-04T09:13:28;8.73;;;1.70;;
11608;SDS011;5860;52.018;8.536;2024-02-04T09:15:55;11.47;;;2.37;;
11608;SDS011;5860;52.018;8.536;2024-02-04T09:18:22;7.60;;;1.90;;
11608;SDS011;5860;52.018;8.536;2024-02-04T09:20:50;7.30;;;1.90;;
11608;SDS011;5860;52.018;8.536;2024-02-04T09:23:17;6.80;;;2.17;;
11608;SDS011;5860;52.018;8.536;2024-02-04T09:25:44;6.87;;;1.63;;
11608;SDS011;5860;52.018;8.536;2024-02-04T09:28:12;8.07;;;2.67;;
11608;SDS011;5860;52.018;8.536;2024-02-04T09:30:39;7.37;;;2.07;;
11608;SDS011;5860;52.018;8.536;2024-02-04T09:33:06;5.77;;;1.70;;
11608;SDS011;5860;52.018;8.536;2024-02-04T09:35:35;8.37;;;1.73;;
11608;SDS011;5860;52.018;8.536;2024-02-04T09:38:05;5.97;;;1.83;;
11608;SDS011;5860;52.018;8.536;2024-02-04T09:40:37;5.43;;;2.17;;
11608;SDS011;5860;52.018;8.536;2024-02-04T09:43:04;8.10;;;2.37;;
11608;SDS011;5860;52.018;8.536;2024-02-04T09:45:32;7.57;;;1.87;;
11608;SDS011;5860;52.018;8.536;2024-02-04T09:48:01;9.73;;;2.10;;
11608;SDS011;5860;52.018;8.536;2024-02-04T09:50:29;7.63;;;2.00;;
11608;SDS011;5860;52.018;8.536;2024-02-04T09:52:58;6.23;;;1.90;;
11608;SDS011;5860;52.018;8.536;2024-02-04T09:55:26;11.43;;;2.30;;
11608;SDS011;5860;52.018;8.536;2024-02-04T09:57:56;7.40;;;2.30;;
11608;SDS011;5860;52.018;8.536;2024-02-04T10:00:22;5.13;;;2.03;;
11608;SDS011;5860;52.018;8.536;2024-02-04T10:02:53;8.07;;;2.20;;
11608;SDS011;5860;52.018;8.536;2024-02-04T10:05:22;5.13;;;1.80;;
11608;SDS011;5860;52.018;8.536;2024-02-04T10:07:49;8.00;;;2.00;;
11608;SDS011;5860;52.018;8.536;2024-02-04T10:10:16;6.63;;;1.80;;
11608;SDS011;5860;52.018;8.536;2024-02-04T10:12:44;5.80;;;1.77;;
11608;SDS011;5860;52.018;8.536;2024-02-04T10:15:11;7.97;;;2.33;;
11608;SDS011;5860;52.018;8.536;2024-02-04T10:17:45;10.17;;;2.47;;
11608;SDS011;5860;52.018;8.536;2024-02-04T10:20:12;4.57;;;2.00;;
11608;SDS011;5860;52.018;8.536;2024-02-04T10:22:43;6.43;;;2.30;;
11608;SDS011;5860;52.018;8.536;2024-02-04T10:25:10;7.00;;;2.10;;
11608;SDS011;5860;52.018;8.536;2024-02-04T10:27:42;7.43;;;3.10;;
11608;SDS011;5860;52.018;8.536;2024-02-04T10:30:10;7.60;;;2.30;;
11608;SDS011;5860;52.018;8.536;2024-02-04T10:32:37;6.23;;;2.60;;
11608;SDS011;5860;52.018;8.536;2024-02-04T10:35:04;7.07;;;2.03;;
11608;SDS011;5860;52.018;8.536;2024-02-04T10:37:31;5.63;;;2.03;;
11608;SDS011;5860;52.018;8.536;2024-02-04T10:39:59;6.20;;;2.57;;
11608;SDS011;5860;52.018;8.536;2024-02-04T10:42:26;5.17;;;2.47;;
11608;SDS011;5860;52.018;8.536;2024-02-04T10:44:54;3.97;;;2.30;;
11608;SDS011;5860;52.018;8.536;2024-02-04T10:47:25;6.93;;;2.37;;
11608;SDS011;5860;52.018;8.536;2024-02-04T10:49:59;5.90;;;2.40;;
11608;SDS011;5860;52.018;8.536;2024-02-04T10:52:32;4.60;;;2.20;;
11608;SDS011;5860;52.018;8.536;2024-02-04T10:55:07;6.37;;;2.30;;
11608;SDS011;5860;52.018;8.536;2024-02-04T10:57:38;6.47;;;2.83;;
11608;SDS011;5860;52.018;8.536;2024-02-04T11:00:06;4.67;;;2.07;;
11608;SDS011;5860;52.018;8.536;2024-02-04T11:02:35;6.80;;;2.20;;
11608;SDS011;5860;52.018;8.536;2024-02-04T11:05:04;5.80;;;2.53;;
11608;SDS011;5860;52.018;8.536;2024-02-04T11:07:33;6.40;;;3.10;;
11608;SDS011;5860;52.018;8.536;2024-02-04T11:10:00;4.00;;;1.70;;
11608;SDS011;5860;52.018;8.536;2024-02-04T11:12:28;4.30;;;2.53;;
11608;SDS011;5860;52.018;8.536;2024-02-04T11:14:59;6.53;;;2.87;;
11608;SDS011;5860;52.018;8.536;2024-02-04T11:26:00;6.60;;;2.70;;
11608;SDS011;5860;52.018;8.536;2024-02-04T11:28:28;6.60;;;3.43;;
11608;SDS011;5860;52.018;8.536;2024-02-04T11:30:55;7.77;;;3.67;;
11608;SDS011;5860;52.018;8.536;2024-02-04T11:33:23;5.33;;;3.10;;
11608;SDS011;5860;52.018;8.536;2024-02-04T11:36:06;8.00;;;3.67;;
11608;SDS011;5860;52.018;8.536;2024-02-04T11:38:37;7.40;;;3.70;;
11608;SDS011;5860;52.018;8.536;2024-02-04T11:41:05;5.50;;;2.90;;
11608;SDS011;5860;52.018;8.536;2024-02-04T11:43:36;7.33;;;4.07;;
11608;SDS011;5860;52.018;8.536;2024-02-04T11:46:07;6.73;;;3.73;;
11608;SDS011;5860;52.018;8.536;2024-02-04T11:48:50;7.37;;;4.00;;
11608;SDS011;5860;52.018;8.536;2024-02-04T11:51:24;7.90;;;3.77;;
11608;SDS011;5860;52.018;8.536;2024-02-04T11:53:51;6.87;;;3.40;;
11608;SDS011;5860;52.018;8.536;2024-02-04T11:56:18;7.70;;;4.20;;
11608;SDS011;5860;52.018;8.536;2024-02-04T11:58:46;7.07;;;4.03;;
11608;SDS011;5860;52.018;8.536;2024-02-04T12:01:13;5.43;;;3.70;;
11608;SDS011;5860;52.018;8.536;2024-02-04T12:03:40;7.20;;;3.83;;
11608;SDS011;5860;52.018;8.536;2024-02-04T12:06:07;5.83;;;4.50;;
11608;SDS011;5860;52.018;8.536;2024-02-04T12:08:36;9.50;;;4.53;;
11608;SDS011;5860;52.018;8.536;2024-02-04T12:11:04;10.23;;;4.90;;
11608;SDS011;5860;52.018;8.536;2024-02-04T12:13:31;7.57;;;4.80;;
11608;SDS011;5860;52.018;8.536;2024-02-04T12:16:00;6.97;;;4.63;;
11608;SDS011;5860;52.018;8.536;2024-02-04T12:18:28;8.60;;;4.40;;
11608;SDS011;5860;52.018;8.536;2024-02-04T12:20:56;7.37;;;5.60;;
11608;SDS011;5860;52.018;8.536;2024-02-04T12:23:22;10.07;;;5.83;;
11608;SDS011;5860;52.018;8.536;2024-02-04T12:25:50;7.03;;;4.70;;
11608;SDS011;5860;52.018;8.536;2024-02-04T12:28:17;6.63;;;4.80;;
11608;SDS011;5860;52.018;8.536;2024-02-04T12:30:53;9.17;;;5.20;;
11608;SDS011;5860;52.018;8.536;2024-02-04T12:33:25;6.47;;;5.17;;
11608;SDS011;5860;52.018;8.536;2024-02-04T12:35:52;6.80;;;5.07;;
11608;SDS011;5860;52.018;8.536;2024-02-04T12:38:22;6.97;;;5.53;;
11608;SDS011;5860;52.018;8.536;2024-02-04T12:40:49;12.43;;;6.20;;
11608;SDS011;5860;52.018;8.536;2024-02-04T12:43:17;7.30;;;5.77;;
11608;SDS011;5860;52.018;8.536;2024-02-04T12:45:44;7.73;;;5.60;;
11608;SDS011;5860;52.018;8.536;2024-02-04T12:48:14;7.60;;;5.60;;
11608;SDS011;5860;52.018;8.536;2024-02-04T12:50:42;9.70;;;5.80;;
11608;SDS011;5860;52.018;8.536;2024-02-04T12:53:09;10.03;;;6.57;;
11608;SDS011;5860;52.018;8.536;2024-02-04T12:55:39;8.13;;;6.03;;
11608;SDS011;5860;52.018;8.536;2024-02-04T13:00:35;10.93;;;6.53;;
11608;SDS011;5860;52.018;8.536;2024-02-04T13:03:03;10.03;;;6.40;;
11608;SDS011;5860;52.018;8.536;2024-02-04T13:05:32;8.97;;;6.17;;
11608;SDS011;5860;52.018;8.536;2024-02-04T13:08:00;9.40;;;6.20;;
11608;SDS011;5860;52.018;8.536;2024-02-04T13:10:30;10.67;;;5.90;;
11608;SDS011;5860;52.018;8.536;2024-02-04T13:13:02;9.27;;;5.40;;
11608;SDS011;5860;52.018;8.536;2024-02-04T13:15:40;8.77;;;6.10;;
11608;SDS011;5860;52.018;8.536;2024-02-04T13:18:09;9.20;;;6.73;;
11608;SDS011;5860;52.018;8.536;2024-02-04T13:20:43;8.30;;;6.07;;
11608;SDS011;5860;52.018;8.536;2024-02-04T13:23:11;7.27;;;5.70;;
11608;SDS011;5860;52.018;8.536;2024-02-04T13:25:38;8.40;;;6.23;;
11608;SDS011;5860;52.018;8.536;2024-02-04T13:28:06;10.77;;;6.53;;
11608;SDS011;5860;52.018;8.536;2024-02-04T13:30:33;7.90;;;5.87;;
11608;SDS011;5860;52.018;8.536;2024-02-04T13:33:00;7.93;;;4.73;;
11608;SDS011;5860;52.018;8.536;2024-02-04T13:35:29;7.10;;;5.10;;
11608;SDS011;5860;52.018;8.536;2024-02-04T13:37:57;7.97;;;5.43;;
11608;SDS011;5860;52.018;8.536;2024-02-04T13:40:24;8.17;;;5.10;;
11608;SDS011;5860;52.018;8.536;2024-02-04T13:42:51;6.60;;;5.00;;
11608;SDS011;5860;52.018;8.536;2024-02-04T13:45:18;7.40;;;4.60;;
11608;SDS011;5860;52.018;8.536;2024-02-04T13:47:46;5.07;;;4.10;;
11608;SDS011;5860;52.018;8.536;2024-02-04T13:50:13;6.73;;;3.90;;
11608;SDS011;5860;52.018;8.536;2024-02-04T13:52:41;6.30;;;3.87;;
11608;SDS011;5860;52.018;8.536;2024-02-04T13:55:08;5.33;;;3.87;;
11608;SDS011;5860;52.018;8.536;2024-02-04T13:57:35;5.93;;;4.77;;
11608;SDS011;5860;52.018;8.536;2024-02-04T14:00:03;6.13;;;4.10;;
11608;SDS011;5860;52.018;8.536;2024-02-04T14:02:32;5.90;;;3.87;;
11608;SDS011;5860;52.018;8.536;2024-02-04T14:04:59;7.67;;;4.20;;
11608;SDS011;5860;52.018;8.536;2024-02-04T14:07:28;4.30;;;3.47;;
11608;SDS011;5860;52.018;8.536;2024-02-04T14:09:55;4.90;;;3.67;;
11608;SDS011;5860;52.018;8.536;2024-02-04T14:12:22;6.27;;;3.27;;
11608;SDS011;5860;52.018;8.536;2024-02-04T14:14:50;4.77;;;3.77;;
11608;SDS011;5860;52.018;8.536;2024-02-04T14:17:17;5.23;;;3.97;;
11608;SDS011;5860;52.018;8.536;2024-02-04T14:19:44;7.03;;;3.23;;
11608;SDS011;5860;52.018;8.536;2024-02-04T14:22:15;7.97;;;3.20;;
11608;SDS011;5860;52.018;8.536;2024-02-04T14:24:44;4.17;;;2.97;;
11608;SDS011;5860;52.018;8.536;2024-02-04T14:27:12;6.93;;;2.60;;
11608;SDS011;5860;52.018;8.536;2024-02-04T14:29:39;2.97;;;2.30;;
11608;SDS011;5860;52.018;8.536;2024-02-04T14:32:06;3.10;;;2.67;;
11608;SDS011;5860;52.018;8.536;2024-02-04T14:34:34;6.67;;;3.00;;
11608;SDS011;5860;52.018;8.536;2024-02-04T14:37:02;3.73;;;2.70;;
11608;SDS011;5860;52.018;8.536;2024-02-04T14:39:29;6.03;;;2.87;;
11608;SDS011;5860;52.018;8.536;2024-02-04T14:41:58;5.00;;;2.90;;
11608;SDS011;5860;52.018;8.536;2024-02-04T14:44:25;6.77;;;2.87;;
11608;SDS011;5860;52.018;8.536;2024-02-04T14:46:52;5.40;;;3.03;;
11608;SDS011;5860;52.018;8.536;2024-02-04T14:49:19;8.30;;;3.07;;
11608;SDS011;5860;52.018;8.536;2024-02-04T14:51:46;3.93;;;2.77;;
11608;SDS011;5860;52.018;8.536;2024-02-04T14:54:13;3.80;;;3.00;;
11608;SDS011;5860;52.018;8.536;2024-02-04T14:56:41;5.77;;;2.93;;
11608;SDS011;5860;52.018;8.536;2024-02-04T14:59:09;6.87;;;3.40;;
11608;SDS011;5860;52.018;8.536;2024-02-04T15:01:48;6.40;;;3.73;;
11608;SDS011;5860;52.018;8.536;2024-02-04T15:04:17;4.60;;;3.27;;
11608;SDS011;5860;52.018;8.536;2024-02-04T15:06:45;6.13;;;3.33;;
11608;SDS011;5860;52.018;8.536;2024-02-04T15:09:12;5.07;;;3.53;;
11608;SDS011;5860;52.018;8.536;2024-02-04T15:11:41;6.57;;;3.23;;
11608;SDS011;5860;52.018;8.536;2024-02-04T15:14:09;7.20;;;3.83;;